createdAt,value
2022-09-12T00:01:06.940Z,98.16
2022-09-12T00:04:12.830Z,98.25
2022-09-12T00:07:16.783Z,98.04
2022-09-12T00:10:21.131Z,98.20
2022-09-12T00:13:26.107Z,98.26
2022-09-12T00:16:32.679Z,98.04
2022-09-12T00:19:36.327Z,97.96
2022-09-12T00:22:39.943Z,98.12
2022-09-12T00:25:45.030Z,97.94
2022-09-12T00:28:50.658Z,97.94
2022-09-12T00:31:54.363Z,98.10
2022-09-12T00:34:57.975Z,98.14
2022-09-12T00:38:01.595Z,98.26
2022-09-12T00:41:05.424Z,97.86
2022-09-12T00:44:48.277Z,98.16
2022-09-12T00:47:51.988Z,98.20
2022-09-12T00:50:55.779Z,97.95
2022-09-12T00:54:04.039Z,97.94
2022-09-12T00:57:11.784Z,98.13
2022-09-12T01:00:20.898Z,97.71
2022-09-12T01:03:26.465Z,97.65
2022-09-12T01:06:36.695Z,97.63
2022-09-12T01:09:43.220Z,97.76
2022-09-12T01:12:47.615Z,97.92
2022-09-12T01:15:54.336Z,97.75
2022-09-12T01:19:26.658Z,97.75
2022-09-12T01:23:02.550Z,97.48
2022-09-12T01:26:27.672Z,97.50
2022-09-12T01:30:07.188Z,97.84
2022-09-12T01:33:41.142Z,98.07
2022-09-12T01:37:00.480Z,98.19
2022-09-12T01:40:16.677Z,98.00
2022-09-12T01:43:31.918Z,98.38
2022-09-12T01:46:46.777Z,98.20
2022-09-12T01:50:01.606Z,98.17
2022-09-12T01:53:14.786Z,98.72
2022-09-12T01:56:25.043Z,98.55
2022-09-12T01:59:36.085Z,98.72
2022-09-12T02:02:50.728Z,98.71
2022-09-12T02:06:04.305Z,98.67
2022-09-12T02:09:16.119Z,98.87
2022-09-12T02:12:26.928Z,98.67
2022-09-12T02:15:38.999Z,98.84
2022-09-12T02:18:51.843Z,98.58
2022-09-12T02:22:01.377Z,98.89
2022-09-12T02:25:10.614Z,99.06
2022-09-12T02:28:22.796Z,99.06
2022-09-12T02:31:35.023Z,99.13
2022-09-12T02:34:49.822Z,98.71
2022-09-12T02:38:03.584Z,99.05
2022-09-12T02:41:07.445Z,99.13
2022-09-12T02:44:11.403Z,98.98
2022-09-12T02:47:26.450Z,99.06
2022-09-12T02:50:30.435Z,98.73
2022-09-12T02:53:37.003Z,98.99
2022-09-12T02:56:45.811Z,98.52
2022-09-12T02:59:54.504Z,98.69
2022-09-12T03:03:40.180Z,98.30
2022-09-12T03:07:02.472Z,98.23
2022-09-12T03:10:24.163Z,98.58
2022-09-12T03:13:44.837Z,98.40
2022-09-12T03:17:01.717Z,98.06
2022-09-12T03:20:12.846Z,98.32
2022-09-12T03:23:31.163Z,98.04
2022-09-12T03:26:44.669Z,97.82
2022-09-12T03:29:49.899Z,98.11
2022-09-12T03:32:56.063Z,97.84
2022-09-12T03:35:59.747Z,97.82
2022-09-12T03:39:03.282Z,97.93
2022-09-12T03:42:08.350Z,97.88
2022-09-12T03:45:13.182Z,98.26
2022-09-12T03:48:16.930Z,97.99
2022-09-12T03:51:20.915Z,98.30
2022-09-12T03:54:24.659Z,98.51
2022-09-12T03:57:29.813Z,98.12
2022-09-12T04:00:33.493Z,98.61
2022-09-12T04:03:37.075Z,98.92
2022-09-12T04:06:41.686Z,98.45
2022-09-12T04:09:45.566Z,98.94
2022-09-12T04:12:50.599Z,98.89
2022-09-12T04:16:01.586Z,99.09
2022-09-12T04:19:05.343Z,99.32
2022-09-12T04:22:08.964Z,99.01
2022-09-12T04:25:13.430Z,99.11
2022-09-12T04:28:18.379Z,98.94
2022-09-12T04:31:23.585Z,99.08
2022-09-12T04:34:31.784Z,99.46
2022-09-12T04:37:35.587Z,98.76
2022-09-12T04:40:39.362Z,99.06
2022-09-12T04:43:46.565Z,98.56
2022-09-12T04:46:50.622Z,98.54
2022-09-12T04:49:54.232Z,98.62
2022-09-12T04:52:58.150Z,98.86
2022-09-12T04:56:04.714Z,98.83
2022-09-12T04:59:11.988Z,98.66
2022-09-12T05:02:16.403Z,99.06
2022-09-12T05:05:20.126Z,99.32
2022-09-12T05:08:23.757Z,99.46
2022-09-12T05:11:53.021Z,99.08
2022-09-12T05:14:55.931Z,99.84
2022-09-12T05:17:59.517Z,99.35
2022-09-12T05:21:05.308Z,99.28
2022-09-12T05:24:09.011Z,99.96
2022-09-12T05:27:12.551Z,99.91
2022-09-12T05:30:17.666Z,99.86
2022-09-12T05:33:24.994Z,99.63
2022-09-12T05:36:32.442Z,99.31
2022-09-12T05:39:35.984Z,100.00
2022-09-12T05:42:39.568Z,99.70
2022-09-12T05:45:45.200Z,100.00
2022-09-12T05:48:55.628Z,100.00
2022-09-12T05:51:59.828Z,100.00
2022-09-12T05:55:03.459Z,100.00
2022-09-12T05:58:07.473Z,100.00
2022-09-12T06:01:16.016Z,100.00
2022-09-12T06:04:19.754Z,99.91
2022-09-12T06:07:23.390Z,100.00
2022-09-12T06:10:27.091Z,100.00
2022-09-12T06:13:33.135Z,100.00
2022-09-12T06:16:38.698Z,99.54
2022-09-12T06:19:42.363Z,99.96
2022-09-12T06:22:45.963Z,99.93
2022-09-12T06:25:50.640Z,100.00
2022-09-12T06:29:10.303Z,99.81
2022-09-12T06:32:15.502Z,99.97
2022-09-12T06:35:19.206Z,100.00
2022-09-12T06:38:22.854Z,100.00
2022-09-12T06:41:27.186Z,100.00
2022-09-12T06:44:31.681Z,100.00
2022-09-12T06:47:37.258Z,100.00
2022-09-12T06:50:40.775Z,100.00
2022-09-12T06:53:46.093Z,100.00
2022-09-12T06:56:49.964Z,100.00
2022-09-12T06:59:53.528Z,100.00
2022-09-12T07:02:58.639Z,100.00
2022-09-12T07:06:06.340Z,99.96
2022-09-12T07:09:13.821Z,99.88
2022-09-12T07:12:17.471Z,98.91
2022-09-12T07:15:31.787Z,98.58
2022-09-12T07:18:39.167Z,98.47
2022-09-12T07:21:43.159Z,97.62
2022-09-12T07:24:47.755Z,96.72
2022-09-12T07:27:51.420Z,96.36
2022-09-12T07:30:56.071Z,96.47
2022-09-12T07:34:01.087Z,95.71
2022-09-12T07:37:05.047Z,94.86
2022-09-12T07:40:10.480Z,94.48
2022-09-12T07:43:14.303Z,93.54
2022-09-12T07:46:18.127Z,91.94
2022-09-12T07:49:23.130Z,91.17
2022-09-12T07:52:26.775Z,90.22
2022-09-12T07:55:30.886Z,90.08
2022-09-12T07:58:36.928Z,88.32
2022-09-12T08:01:41.649Z,87.14
2022-09-12T08:04:48.387Z,85.16
2022-09-12T08:07:55.799Z,85.16
2022-09-12T08:11:02.627Z,83.79
2022-09-12T08:14:06.730Z,82.15
2022-09-12T08:17:10.727Z,81.02
2022-09-12T08:20:15.935Z,81.26
2022-09-12T08:23:21.871Z,80.92
2022-09-12T08:26:25.889Z,80.31
2022-09-12T08:29:29.607Z,79.96
2022-09-12T08:32:33.187Z,80.01
2022-09-12T08:35:38.193Z,80.29
2022-09-12T08:38:44.324Z,78.75
2022-09-12T08:41:51.350Z,78.68
2022-09-12T08:45:18.032Z,77.89
2022-09-12T08:48:21.687Z,77.68
2022-09-12T08:51:27.166Z,78.08
2022-09-12T08:54:33.613Z,78.42
2022-09-12T08:57:37.266Z,78.71
2022-09-12T09:00:52.290Z,77.48
2022-09-12T09:04:20.649Z,77.40
2022-09-12T09:07:55.681Z,76.88
2022-09-12T09:11:12.792Z,76.45
2022-09-12T09:14:50.830Z,76.38
2022-09-12T09:18:00.486Z,75.94
2022-09-12T09:21:13.603Z,75.99
2022-09-12T09:24:26.064Z,74.48
2022-09-12T09:27:40.760Z,74.10
2022-09-12T09:30:46.037Z,73.24
2022-09-12T09:33:54.172Z,72.88
2022-09-12T09:37:09.100Z,73.13
2022-09-12T09:40:25.604Z,72.64
2022-09-12T09:43:29.576Z,71.63
2022-09-12T09:46:34.495Z,71.71
2022-09-12T09:49:38.232Z,71.58
2022-09-12T09:52:42.317Z,71.56
2022-09-12T09:55:47.907Z,70.97
2022-09-12T09:58:51.651Z,69.94
2022-09-12T10:02:02.234Z,70.41
2022-09-12T10:05:06.424Z,70.39
2022-09-12T10:08:11.385Z,70.67
2022-09-12T10:11:26.945Z,70.71
2022-09-12T10:14:41.148Z,70.87
2022-09-12T10:17:47.932Z,70.26
2022-09-12T10:20:51.767Z,69.45
2022-09-12T10:24:05.310Z,69.30
2022-09-12T10:27:18.902Z,69.29
2022-09-12T10:30:25.242Z,68.81
2022-09-12T10:33:31.679Z,67.78
2022-09-12T10:36:41.058Z,67.98
2022-09-12T10:39:54.591Z,68.41
2022-09-12T10:43:19.185Z,68.21
2022-09-12T10:46:29.631Z,68.03
2022-09-12T10:49:38.708Z,68.33
2022-09-12T10:52:42.373Z,67.97
2022-09-12T10:56:09.615Z,67.06
2022-09-12T10:59:29.072Z,67.19
2022-09-12T11:02:50.804Z,67.38
2022-09-12T11:06:00.060Z,66.68
2022-09-12T11:09:16.087Z,65.64
2022-09-12T11:12:34.015Z,64.79
2022-09-12T11:15:57.929Z,64.24
2022-09-12T11:19:23.206Z,63.61
2022-09-12T11:22:45.642Z,63.15
2022-09-12T11:26:01.177Z,63.11
2022-09-12T11:29:22.183Z,62.35
2022-09-12T11:33:08.255Z,60.92
2022-09-12T11:36:28.998Z,60.93
2022-09-12T11:39:40.522Z,60.28
2022-09-12T11:42:47.575Z,58.47
2022-09-12T11:45:52.990Z,58.16
2022-09-12T11:49:05.584Z,57.44
2022-09-12T11:52:18.034Z,57.40
2022-09-12T11:55:29.849Z,56.61
2022-09-12T11:58:34.016Z,57.14
2022-09-12T12:01:48.574Z,57.70
2022-09-12T12:05:17.209Z,57.44
2022-09-12T12:08:23.760Z,56.67
2022-09-12T12:11:33.950Z,55.97
2022-09-12T12:14:44.400Z,56.02
2022-09-12T12:18:02.503Z,55.33
2022-09-12T12:21:37.378Z,54.69
2022-09-12T12:25:11.148Z,54.96
2022-09-12T12:29:01.666Z,54.77
2022-09-12T12:32:26.206Z,53.90
2022-09-12T12:35:42.653Z,54.16
2022-09-12T12:38:47.776Z,53.56
2022-09-12T12:41:51.434Z,52.73
2022-09-12T12:44:54.997Z,50.99
2022-09-12T12:48:10.188Z,51.39
2022-09-12T12:52:02.545Z,50.11
2022-09-12T12:55:17.017Z,49.13
2022-09-12T12:58:34.646Z,49.32
2022-09-12T13:01:41.161Z,48.58
2022-09-12T13:04:47.056Z,48.45
2022-09-12T13:07:59.223Z,49.21
2022-09-12T13:11:10.971Z,48.11
2022-09-12T13:14:38.773Z,48.59
2022-09-12T13:17:44.882Z,48.96
2022-09-12T13:20:54.972Z,48.46
2022-09-12T13:24:03.974Z,48.35
2022-09-12T13:27:21.150Z,47.93
2022-09-12T13:30:24.731Z,47.03
2022-09-12T13:33:37.679Z,47.71
2022-09-12T13:37:25.410Z,47.16
2022-09-12T13:40:47.043Z,47.00
2022-09-12T13:43:52.708Z,46.52
2022-09-12T13:47:01.631Z,46.63
2022-09-12T13:50:08.683Z,46.86
2022-09-12T13:53:19.227Z,46.47
2022-09-12T13:56:23.551Z,45.83
2022-09-12T13:59:28.771Z,45.11
2022-09-12T14:02:37.615Z,45.07
2022-09-12T14:05:45.102Z,44.46
2022-09-12T14:08:49.115Z,43.31
2022-09-12T14:11:53.830Z,44.11
2022-09-12T14:14:59.299Z,43.77
2022-09-12T14:18:05.703Z,43.60
2022-09-12T14:21:13.308Z,43.47
2022-09-12T14:24:17.110Z,43.73
2022-09-12T14:27:25.858Z,43.33
2022-09-12T14:30:34.090Z,43.72
2022-09-12T14:33:50.260Z,44.30
2022-09-12T14:36:57.277Z,44.21
2022-09-12T14:40:01.486Z,44.10
2022-09-12T14:43:05.270Z,44.16
2022-09-12T14:46:20.585Z,44.72
2022-09-12T14:49:32.595Z,44.45
2022-09-12T14:52:36.476Z,45.01
2022-09-12T14:55:47.441Z,44.33
2022-09-12T14:58:51.822Z,44.38
2022-09-12T15:02:27.302Z,44.51
2022-09-12T15:05:31.367Z,45.13
2022-09-12T15:08:35.406Z,45.26
2022-09-12T15:11:38.951Z,45.26
2022-09-12T15:14:42.601Z,45.19
2022-09-12T15:17:48.086Z,45.50
2022-09-12T15:20:55.152Z,45.88
2022-09-12T15:23:58.751Z,45.43
2022-09-12T15:27:02.340Z,45.80
2022-09-12T15:30:07.272Z,46.50
2022-09-12T15:33:13.072Z,47.12
2022-09-12T15:36:20.118Z,47.51
2022-09-12T15:39:23.733Z,47.48
2022-09-12T15:42:31.438Z,48.15
2022-09-12T15:45:45.375Z,48.42
2022-09-12T15:48:51.192Z,48.06
2022-09-12T15:51:54.785Z,47.70
2022-09-12T15:54:58.492Z,48.15
2022-09-12T15:58:06.886Z,48.54
2022-09-12T16:01:13.260Z,48.80
2022-09-12T16:04:25.355Z,49.24
2022-09-12T16:07:29.957Z,49.74
2022-09-12T16:10:33.595Z,50.31
2022-09-12T16:13:37.187Z,49.98
2022-09-12T16:16:40.931Z,50.67
2022-09-12T16:19:45.846Z,51.00
2022-09-12T16:22:49.961Z,51.54
2022-09-12T16:26:00.443Z,51.93
2022-09-12T16:29:04.251Z,51.61
2022-09-12T16:32:08.116Z,51.90
2022-09-12T16:35:13.203Z,51.86
2022-09-12T16:38:17.085Z,51.98
2022-09-12T16:41:24.744Z,51.50
2022-09-12T16:44:28.342Z,51.74
2022-09-12T16:47:32.538Z,52.01
2022-09-12T16:50:37.545Z,52.42
2022-09-12T16:53:41.580Z,52.13
2022-09-12T16:56:46.747Z,51.83
2022-09-12T16:59:50.786Z,51.46
2022-09-12T17:02:54.355Z,52.06
2022-09-12T17:06:04.976Z,52.87
2022-09-12T17:09:10.641Z,53.36
2022-09-12T17:12:14.273Z,53.44
2022-09-12T17:15:38.705Z,54.00
2022-09-12T17:18:42.946Z,54.31
2022-09-12T17:21:48.902Z,54.55
2022-09-12T17:24:52.437Z,55.05
2022-09-12T17:27:56.021Z,55.27
2022-09-12T17:31:02.652Z,55.74
2022-09-12T17:34:06.210Z,56.21
2022-09-12T17:37:11.188Z,56.71
2022-09-12T17:40:14.773Z,56.85
2022-09-12T17:43:44.002Z,57.42
2022-09-12T17:46:47.765Z,57.90
2022-09-12T17:49:52.063Z,58.01
2022-09-12T17:52:57.739Z,58.72
2022-09-12T17:56:04.523Z,59.21
2022-09-12T17:59:11.912Z,59.84
2022-09-12T18:02:16.121Z,60.55
2022-09-12T18:05:19.779Z,60.97
2022-09-12T18:08:26.296Z,61.38
2022-09-12T18:11:30.100Z,61.94
2022-09-12T18:14:33.727Z,62.42
2022-09-12T18:17:37.284Z,62.61
2022-09-12T18:20:40.991Z,63.10
2022-09-12T18:23:46.037Z,63.35
2022-09-12T18:26:49.957Z,63.65
2022-09-12T18:30:17.236Z,64.11
2022-09-12T18:33:20.766Z,64.61
2022-09-12T18:36:26.962Z,64.87
2022-09-12T18:39:32.031Z,65.13
2022-09-12T18:42:35.632Z,65.49
2022-09-12T18:45:39.294Z,65.70
2022-09-12T18:48:46.946Z,65.93
2022-09-12T18:51:50.574Z,66.11
2022-09-12T18:54:55.538Z,66.49
2022-09-12T18:57:59.106Z,66.82
2022-09-12T19:01:11.322Z,67.17
2022-09-12T19:04:16.523Z,67.39
2022-09-12T19:07:20.163Z,67.78
2022-09-12T19:10:25.691Z,68.20
2022-09-12T19:13:29.461Z,68.43
2022-09-12T19:16:33.695Z,68.59
2022-09-12T19:19:40.483Z,68.74
2022-09-12T19:22:44.347Z,69.06
2022-09-12T19:25:58.910Z,69.21
2022-09-12T19:29:03.072Z,69.32
2022-09-12T19:32:06.871Z,69.61
2022-09-12T19:35:12.858Z,69.51
2022-09-12T19:38:17.280Z,69.77
2022-09-12T19:41:22.372Z,69.59
2022-09-12T19:44:27.627Z,69.77
2022-09-12T19:47:31.322Z,70.12
2022-09-12T19:50:34.877Z,70.19
2022-09-12T19:53:38.509Z,70.59
2022-09-12T19:56:43.833Z,70.61
2022-09-12T19:59:48.085Z,71.11
2022-09-12T20:02:52.805Z,70.92
2022-09-12T20:06:20.476Z,71.10
2022-09-12T20:09:24.027Z,71.51
2022-09-12T20:12:29.164Z,71.69
2022-09-12T20:15:45.392Z,71.92
2022-09-12T20:18:49.824Z,72.10
2022-09-12T20:21:53.591Z,72.43
2022-09-12T20:24:57.414Z,72.64
2022-09-12T20:28:03.157Z,72.92
2022-09-12T20:31:12.400Z,73.02
2022-09-12T20:34:18.968Z,73.29
2022-09-12T20:37:22.839Z,73.51
2022-09-12T20:40:26.524Z,73.68
2022-09-12T20:43:31.697Z,74.15
2022-09-12T20:46:35.574Z,74.15
2022-09-12T20:49:39.320Z,74.25
2022-09-12T20:52:42.966Z,74.36
2022-09-12T20:55:51.648Z,74.18
2022-09-12T20:58:57.414Z,74.15
2022-09-12T21:02:01.295Z,74.13
2022-09-12T21:05:05.521Z,73.87
2022-09-12T21:08:09.194Z,74.03
2022-09-12T21:11:13.103Z,73.81
2022-09-12T21:14:18.088Z,73.82
2022-09-12T21:17:21.783Z,73.94
2022-09-12T21:20:25.367Z,73.70
2022-09-12T21:23:31.014Z,73.98
2022-09-12T21:26:34.729Z,73.92
2022-09-12T21:29:39.681Z,73.76
2022-09-12T21:32:43.319Z,74.03
2022-09-12T21:35:47.121Z,74.02
2022-09-12T21:38:50.680Z,74.15
2022-09-12T21:41:54.368Z,74.14
2022-09-12T21:44:59.439Z,73.60
2022-09-12T21:48:03.875Z,73.82
2022-09-12T21:51:08.186Z,73.55
2022-09-12T21:54:11.870Z,73.63
2022-09-12T21:57:15.503Z,73.63
2022-09-12T22:00:20.547Z,73.59
2022-09-12T22:03:24.341Z,73.73
2022-09-12T22:06:28.082Z,73.55
2022-09-12T22:09:31.625Z,73.74
2022-09-12T22:12:35.121Z,73.73
2022-09-12T22:15:41.220Z,74.10
2022-09-12T22:18:46.596Z,74.12
2022-09-12T22:22:07.288Z,74.01
2022-09-12T22:25:11.950Z,74.09
2022-09-12T22:28:16.041Z,74.26
2022-09-12T22:31:21.657Z,74.10
2022-09-12T22:34:25.731Z,74.00
2022-09-12T22:37:29.264Z,74.17
2022-09-12T22:40:33.319Z,73.94
2022-09-12T22:43:37.584Z,73.94
2022-09-12T22:46:42.609Z,73.78
2022-09-12T22:49:47.723Z,73.65
2022-09-12T22:52:55.396Z,73.35
2022-09-12T22:55:59.127Z,73.08
2022-09-12T22:59:02.877Z,73.47
2022-09-12T23:02:08.507Z,73.22
2022-09-12T23:05:12.415Z,73.28
2022-09-12T23:08:16.931Z,73.29
2022-09-12T23:11:22.260Z,73.06
2022-09-12T23:14:25.924Z,73.27
2022-09-12T23:17:30.955Z,73.12
2022-09-12T23:20:34.510Z,73.13
2022-09-12T23:23:38.995Z,72.89
2022-09-12T23:26:42.939Z,72.83
2022-09-12T23:29:46.598Z,72.98
2022-09-12T23:32:51.792Z,73.21
2022-09-12T23:36:00.315Z,72.94
2022-09-12T23:39:04.290Z,73.02
2022-09-12T23:42:08.113Z,73.00
2022-09-12T23:45:12.594Z,73.18
2022-09-12T23:48:18.573Z,73.21
2022-09-12T23:51:22.838Z,73.41
2022-09-12T23:54:26.558Z,73.18
2022-09-12T23:57:30.122Z,73.44
